Аэропорт: Кокшетау. Кокшетау

ICAO: UACK

METAR:
Информация по данной станции не доступна
METAR:
2020-10-19 11:00:00
TAF UACK 191100Z 1912/1921 19008MPS 9999 NSC TEMPO 1912/1921 22012G17MPS